DEDAT EDDW-EDDW

Flight info

Callsign DEDAT
Flight time 0h 23m
Altitude
Route
Aircraft P28B

Departure

Time 2026-05-04 18:41
Airport Bremen Airport (EDDW)

Arrival

Time 2026-05-04 19:05
Airport Bremen Airport (EDDW)
Time Latitude Longitude Altitude Speed Heading
2026-05-04 18:37 53.05060 8.78088 17 ft 0 kts 186°
2026-05-04 18:37 53.05056 8.78089 17 ft 3 kts 165°
2026-05-04 18:38 53.05027 8.78169 17 ft 10 kts 102°
2026-05-04 18:38 53.04969 8.78258 17 ft 14 kts 169°
2026-05-04 18:38 53.04880 8.78334 16 ft 15 kts 140°
2026-05-04 18:38 53.04849 8.78503 16 ft 17 kts 95°
2026-05-04 18:39 53.04815 8.78663 14 ft 16 kts 171°
2026-05-04 18:39 53.04771 8.78668 14 ft 0 kts 178°
2026-05-04 18:39 53.04765 8.78668 14 ft 6 kts 177°
2026-05-04 18:40 53.04707 8.78671 16 ft 8 kts 178°
2026-05-04 18:40 53.04685 8.78698 17 ft 0 kts 87°
2026-05-04 18:41 53.04685 8.78702 17 ft 5 kts 87°
2026-05-04 18:41 53.04697 8.79150 21 ft 69 kts 81°
2026-05-04 18:41 53.04708 8.80033 306 ft 76 kts 84°
2026-05-04 18:41 53.04709 8.80881 683 ft 71 kts 81°
2026-05-04 18:42 53.04762 8.81671 1003 ft 66 kts 54°
2026-05-04 18:42 53.05263 8.81779 1075 ft 90 kts 356°
2026-05-04 18:42 53.05968 8.81660 1081 ft 110 kts 356°
2026-05-04 18:42 53.06552 8.80809 1059 ft 129 kts 288°
2026-05-04 18:43 53.06549 8.79280 1093 ft 136 kts 271°
2026-05-04 18:43 53.06508 8.77678 1081 ft 141 kts 271°
2026-05-04 18:43 53.06470 8.76034 1096 ft 142 kts 271°
2026-05-04 18:43 53.06421 8.74455 1160 ft 134 kts 270°
2026-05-04 18:44 53.06420 8.72937 1242 ft 130 kts 275°
2026-05-04 18:44 53.06442 8.72427 1244 ft 131 kts 277°
2026-05-04 18:44 53.06347 8.69888 1037 ft 131 kts 229°
2026-05-04 18:44 53.05533 8.69891 1318 ft 86 kts 168°
2026-05-04 18:45 53.04974 8.70306 1399 ft 92 kts 118°
2026-05-04 18:45 53.04632 8.71324 1366 ft 107 kts 112°
2026-05-04 18:45 53.04486 8.72526 1101 ft 106 kts 83°
2026-05-04 18:45 53.04520 8.73726 804 ft 102 kts 84°
2026-05-04 18:46 53.04550 8.74907 528 ft 100 kts 83°
2026-05-04 18:46 53.04612 8.75987 343 ft 90 kts 82°
2026-05-04 18:46 53.04633 8.76905 212 ft 78 kts 82°
2026-05-04 18:46 53.04664 8.77888 136 ft 87 kts 82°
2026-05-04 18:47 53.04683 8.78900 104 ft 89 kts 82°
2026-05-04 18:47 53.04711 8.79903 101 ft 83 kts 83°
2026-05-04 18:47 53.04733 8.80912 315 ft 90 kts 84°
2026-05-04 18:47 53.04737 8.81601 569 ft 86 kts 75°
2026-05-04 18:48 53.05227 8.82089 757 ft 98 kts 356°
2026-05-04 18:48 53.06203 8.81951 1005 ft 113 kts 356°
2026-05-04 18:48 53.06736 8.80969 968 ft 137 kts 280°
2026-05-04 18:48 53.06685 8.79901 1022 ft 137 kts 267°
2026-05-04 18:49 53.06564 8.78339 1033 ft 134 kts 266°
2026-05-04 18:49 53.06467 8.76822 1054 ft 130 kts 268°
2026-05-04 18:49 53.06370 8.75321 1073 ft 128 kts 271°
2026-05-04 18:49 53.06807 8.74206 1043 ft 119 kts 345°
2026-05-04 18:50 53.07518 8.74645 1036 ft 120 kts 58°
2026-05-04 18:50 53.07355 8.75950 1022 ft 129 kts 135°
2026-05-04 18:50 53.06500 8.76070 1046 ft 132 kts 215°
2026-05-04 18:50 53.06172 8.74764 1124 ft 120 kts 261°
2026-05-04 18:51 53.05640 8.73927 956 ft 112 kts 184°
2026-05-04 18:51 53.04934 8.74046 838 ft 95 kts 160°
2026-05-04 18:51 53.04590 8.74813 606 ft 87 kts 91°
2026-05-04 18:51 53.04611 8.75773 366 ft 78 kts 84°
2026-05-04 18:52 53.04631 8.76621 190 ft 74 kts 79°
2026-05-04 18:52 53.04657 8.77501 48 ft 75 kts 80°
2026-05-04 18:52 53.04681 8.78292 16 ft 58 kts 88°
2026-05-04 18:52 53.04698 8.79108 140 ft 80 kts 82°
2026-05-04 18:53 53.04717 8.80040 486 ft 83 kts 81°
2026-05-04 18:53 53.04694 8.81027 824 ft 86 kts 90°
2026-05-04 18:53 53.04633 8.82037 1022 ft 99 kts 92°
2026-05-04 18:53 53.04956 8.82903 1130 ft 102 kts 14°
2026-05-04 18:54 53.05723 8.82835 1196 ft 113 kts 357°
2026-05-04 18:54 53.06372 8.82161 1297 ft 123 kts 297°
2026-05-04 18:54 53.06386 8.80803 1496 ft 121 kts 269°
2026-05-04 18:54 53.06346 8.79382 1513 ft 119 kts 271°
2026-05-04 18:55 53.06303 8.78073 1418 ft 108 kts 270°
2026-05-04 18:55 53.06196 8.75583 1183 ft 102 kts 270°
2026-05-04 18:55 53.05698 8.75053 910 ft 112 kts 174°
2026-05-04 18:56 53.04998 8.75253 753 ft 96 kts 152°
2026-05-04 18:56 53.04654 8.76063 437 ft 84 kts 98°
2026-05-04 18:56 53.04635 8.76969 203 ft 76 kts 79°
2026-05-04 18:56 53.04666 8.77833 24 ft 71 kts 83°
2026-05-04 18:57 53.04682 8.78541 18 ft 58 kts 88°
2026-05-04 18:57 53.04706 8.79420 264 ft 75 kts 80°
2026-05-04 18:57 53.04738 8.80258 634 ft 74 kts 78°
2026-05-04 18:57 53.04764 8.81117 956 ft 75 kts 82°
2026-05-04 18:58 53.04940 8.81976 1056 ft 87 kts 35°
2026-05-04 18:58 53.05577 8.82059 1137 ft 103 kts 357°
2026-05-04 18:58 53.06292 8.81783 1226 ft 113 kts 323°
2026-05-04 18:58 53.06481 8.80448 1257 ft 127 kts 268°
2026-05-04 18:59 53.06408 8.78966 1373 ft 128 kts 268°
2026-05-04 18:59 53.06330 8.77473 1450 ft 133 kts 266°
2026-05-04 18:59 53.06237 8.75937 1574 ft 131 kts 267°
2026-05-04 18:59 53.06169 8.74395 1625 ft 138 kts 268°
2026-05-04 19:00 53.06151 8.72817 1747 ft 135 kts 271°
2026-05-04 19:00 53.06116 8.71232 1760 ft 140 kts 269°
2026-05-04 19:00 53.06080 8.69605 1632 ft 142 kts 269°
2026-05-04 19:00 53.06054 8.67967 1552 ft 141 kts 270°
2026-05-04 19:01 53.06042 8.66330 1445 ft 142 kts 274°
2026-05-04 19:01 53.05930 8.64750 1452 ft 135 kts 249°
2026-05-04 19:01 53.05172 8.63964 1466 ft 133 kts 179°
2026-05-04 19:01 53.04342 8.64289 1460 ft 120 kts 126°
2026-05-04 19:02 53.04340 8.65591 1353 ft 115 kts 76°
2026-05-04 19:02 53.04401 8.66938 1288 ft 119 kts 88°
2026-05-04 19:02 53.04413 8.68312 1184 ft 119 kts 85°
2026-05-04 19:02 53.04481 8.69694 1013 ft 118 kts 81°
2026-05-04 19:03 53.04509 8.71013 792 ft 111 kts 86°
2026-05-04 19:03 53.04559 8.72211 623 ft 97 kts 80°
2026-05-04 19:03 53.04556 8.73204 520 ft 78 kts 88°
2026-05-04 19:03 53.04561 8.74049 420 ft 75 kts 84°
2026-05-04 19:04 53.04594 8.74939 340 ft 79 kts 85°
2026-05-04 19:04 53.04616 8.75834 247 ft 77 kts 81°
2026-05-04 19:04 53.04638 8.76718 143 ft 74 kts 81°
2026-05-04 19:04 53.04657 8.77539 56 ft 69 kts 79°
2026-05-04 19:05 53.04676 8.78325 21 ft 65 kts 81°
2026-05-04 19:05 53.04695 8.79021 18 ft 54 kts 88°
2026-05-04 19:05 53.04751 8.79300 16 ft 17 kts
2026-05-04 19:05 53.04832 8.79296 17 ft 7 kts 355°
2026-05-04 19:06 53.04862 8.79211 17 ft 11 kts 268°
2026-05-04 19:06 53.04860 8.79105 16 ft 10 kts 267°
2026-05-04 19:06 53.04857 8.78980 14 ft 13 kts 263°
2026-05-04 19:06 53.04853 8.78808 15 ft 17 kts 267°
2026-05-04 19:07 53.04848 8.78605 16 ft 18 kts 267°
2026-05-04 19:07 53.04855 8.78406 15 ft 17 kts 278°
2026-05-04 19:07 53.04921 8.78279 17 ft 14 kts 322°
2026-05-04 19:07 53.04999 8.78230 17 ft 10 kts 281°
2026-05-04 19:08 53.05024 8.78131 17 ft 9 kts 302°
2026-05-04 19:08 53.05035 8.78125 17 ft 0 kts 18°